Aeroporto :
LOGIN :

Iscrizione | Disclaimer

   EN    FR    IT 

 










Sommario :    VFR   VFR Marginale   IFR   IFR Intensivo   IFR Molto Intensivo
Visibilità : 
Base nubi : 
>= 8 km
>= 3000ft
5 / 8 km
1000 / 3000 ft
1500m / 5 km
500 / 1000 ft
800 / 1500m
200 / 500 ft
< 800m
< 200 ft
Simboli :   Temporali  Nebbia  Neve Forte  Precipitazioni Forti  Vento > 20 kt
SIGMETs :   Varie  Temporali  Ghiacco  Turbolenza  Onda orograficha  Ceneri Vulcaniche






- Altitudine del aeroporto : 194 ft
- Codice IATA : LME


LFRM - Le Mans

ULTIMO METAR :
  • 172330Z AUTO 07005KT CAVOK 22/21 Q1010

METARs OBSOLETI :
  • 172300Z AUTO 06005KT CAVOK 22/21 Q1010
  • 172230Z AUTO 07005KT 040V100 9999 ///TCU 22/21 Q1011
  • 172200Z AUTO 07007KT CAVOK 22/21 Q1011
  • 172130Z AUTO 06005KT CAVOK 23/21 Q1011
  • 172100Z AUTO 05004KT 010V090 9999 ///TCU 23/21 Q1011 TEMPO VRB15G30KT 3000 RA SCT012 BKN030CB

TAF TAF LFRM
Valido dal 17 a 18 ore il 18 a 18 ore UTC


171700Z 1718/1818 17006KT 9999 SCT018 SCT030CB
TEMPO 1718/1806 3000 RA SCT012 BKN030CB
PROB40
TEMPO 1718/1724 VRB15G30KT TSRA
PROB30
TEMPO 1800/1812 VRB15G30KT TSRA BKN008 BKN030CB
TEMPO 1812/1818 BKN015



MetMap, La meteo Aeronautica in un colpo d'occhio ! - Copyright ORBIFLY Dicembre 2007 - Disclaimer

ORBIFLY MET'MAP TEAM :

Programmazione e sviluppo : Alexandra Zaïnal
Concezione : Baudouin d'Aumeries
Aiuto per la programmazione : Marc-Olivier Méhu
Supporto tecnico e logistico : Manuel Goepfert
Aiuto per la traduzione : Arnaldo La Scala

Contatto : metmap@orbifly.com




FONTI E CREDITI :

   NOAA